sensor_id;sensor_type;location;lat;lon;timestamp;temperature;humidity
39237;DHT22;36851;49.996;8.268;2022-09-21T00:01:27;20.60;99.90
39237;DHT22;36851;49.996;8.268;2022-09-21T00:03:56;20.60;99.90
39237;DHT22;36851;49.996;8.268;2022-09-21T00:06:24;20.60;99.90
39237;DHT22;36851;49.996;8.268;2022-09-21T00:08:52;20.60;99.90
39237;DHT22;36851;49.996;8.268;2022-09-21T00:11:20;20.60;99.90
39237;DHT22;36851;49.996;8.268;2022-09-21T00:13:51;20.60;99.90
39237;DHT22;36851;49.996;8.268;2022-09-21T00:16:20;20.60;99.90
39237;DHT22;36851;49.996;8.268;2022-09-21T00:18:47;20.50;99.90
39237;DHT22;36851;49.996;8.268;2022-09-21T00:21:14;20.50;99.90
39237;DHT22;36851;49.996;8.268;2022-09-21T00:23:42;20.60;99.90
39237;DHT22;36851;49.996;8.268;2022-09-21T00:26:11;20.50;99.90
39237;DHT22;36851;49.996;8.268;2022-09-21T00:28:38;20.50;99.90
39237;DHT22;36851;49.996;8.268;2022-09-21T00:31:07;20.50;99.90
39237;DHT22;36851;49.996;8.268;2022-09-21T00:33:37;20.50;99.90
39237;DHT22;36851;49.996;8.268;2022-09-21T00:36:05;20.50;99.90
39237;DHT22;36851;49.996;8.268;2022-09-21T00:38:33;20.50;99.90
39237;DHT22;36851;49.996;8.268;2022-09-21T00:41:01;20.50;99.90
39237;DHT22;36851;49.996;8.268;2022-09-21T00:43:28;20.50;99.90
39237;DHT22;36851;49.996;8.268;2022-09-21T00:46:05;20.50;99.90
39237;DHT22;36851;49.996;8.268;2022-09-21T00:48:36;20.50;99.90
39237;DHT22;36851;49.996;8.268;2022-09-21T00:51:04;20.50;99.90
39237;DHT22;36851;49.996;8.268;2022-09-21T00:53:34;20.50;99.90
39237;DHT22;36851;49.996;8.268;2022-09-21T00:56:02;20.50;99.90
39237;DHT22;36851;49.996;8.268;2022-09-21T00:58:36;20.50;99.90
39237;DHT22;36851;49.996;8.268;2022-09-21T01:01:04;20.40;99.90
39237;DHT22;36851;49.996;8.268;2022-09-21T01:03:32;20.50;99.90
39237;DHT22;36851;49.996;8.268;2022-09-21T01:05:59;20.40;99.90
39237;DHT22;36851;49.996;8.268;2022-09-21T01:08:26;20.40;99.90
39237;DHT22;36851;49.996;8.268;2022-09-21T01:16:26;20.40;99.90
39237;DHT22;36851;49.996;8.268;2022-09-21T01:19:12;20.50;99.90
39237;DHT22;36851;49.996;8.268;2022-09-21T01:24:21;20.40;99.90
39237;DHT22;36851;49.996;8.268;2022-09-21T01:32:15;20.40;99.90
39237;DHT22;36851;49.996;8.268;2022-09-21T01:34:51;20.40;99.90
39237;DHT22;36851;49.996;8.268;2022-09-21T01:37:22;20.40;99.90
39237;DHT22;36851;49.996;8.268;2022-09-21T01:39:52;20.40;99.90
39237;DHT22;36851;49.996;8.268;2022-09-21T01:42:20;20.40;99.90
39237;DHT22;36851;49.996;8.268;2022-09-21T01:44:49;20.40;99.90
39237;DHT22;36851;49.996;8.268;2022-09-21T01:47:16;20.40;99.90
39237;DHT22;36851;49.996;8.268;2022-09-21T01:49:45;20.40;99.90
39237;DHT22;36851;49.996;8.268;2022-09-21T01:52:27;20.40;99.90
39237;DHT22;36851;49.996;8.268;2022-09-21T01:55:16;20.40;99.90
39237;DHT22;36851;49.996;8.268;2022-09-21T01:57:53;20.30;99.90
39237;DHT22;36851;49.996;8.268;2022-09-21T02:00:21;20.30;99.90
39237;DHT22;36851;49.996;8.268;2022-09-21T02:02:56;20.30;99.90
39237;DHT22;36851;49.996;8.268;2022-09-21T02:05:25;20.30;99.90
39237;DHT22;36851;49.996;8.268;2022-09-21T02:07:54;20.30;99.90
39237;DHT22;36851;49.996;8.268;2022-09-21T02:10:22;20.30;99.90
39237;DHT22;36851;49.996;8.268;2022-09-21T02:12:54;20.30;99.90
39237;DHT22;36851;49.996;8.268;2022-09-21T02:15:25;20.30;99.90
39237;DHT22;36851;49.996;8.268;2022-09-21T02:18:06;20.30;99.90
39237;DHT22;36851;49.996;8.268;2022-09-21T02:20:48;20.30;99.90
39237;DHT22;36851;49.996;8.268;2022-09-21T02:23:25;20.30;99.90
39237;DHT22;36851;49.996;8.268;2022-09-21T02:25:56;20.30;99.90
39237;DHT22;36851;49.996;8.268;2022-09-21T02:28:34;20.20;99.90
39237;DHT22;36851;49.996;8.268;2022-09-21T02:31:12;20.30;99.90
39237;DHT22;36851;49.996;8.268;2022-09-21T02:36:43;20.30;99.90
39237;DHT22;36851;49.996;8.268;2022-09-21T02:39:16;20.20;99.90
39237;DHT22;36851;49.996;8.268;2022-09-21T02:41:49;20.20;99.90
39237;DHT22;36851;49.996;8.268;2022-09-21T02:44:19;20.20;99.90
39237;DHT22;36851;49.996;8.268;2022-09-21T02:46:53;20.20;99.90
39237;DHT22;36851;49.996;8.268;2022-09-21T02:49:26;20.20;99.90
39237;DHT22;36851;49.996;8.268;2022-09-21T02:51:56;20.20;99.90
39237;DHT22;36851;49.996;8.268;2022-09-21T02:54:25;20.20;99.90
39237;DHT22;36851;49.996;8.268;2022-09-21T02:56:52;20.20;99.90
39237;DHT22;36851;49.996;8.268;2022-09-21T02:59:20;20.20;99.90
39237;DHT22;36851;49.996;8.268;2022-09-21T03:01:50;20.10;99.90
39237;DHT22;36851;49.996;8.268;2022-09-21T03:04:17;20.20;99.90
39237;DHT22;36851;49.996;8.268;2022-09-21T03:06:44;20.20;99.90
39237;DHT22;36851;49.996;8.268;2022-09-21T03:09:11;20.20;99.90
39237;DHT22;36851;49.996;8.268;2022-09-21T03:11:38;20.20;99.90
39237;DHT22;36851;49.996;8.268;2022-09-21T03:14:08;20.10;99.90
39237;DHT22;36851;49.996;8.268;2022-09-21T03:16:35;20.20;99.90
39237;DHT22;36851;49.996;8.268;2022-09-21T03:19:03;20.10;99.90
39237;DHT22;36851;49.996;8.268;2022-09-21T03:21:31;20.10;99.90
39237;DHT22;36851;49.996;8.268;2022-09-21T03:23:58;20.10;99.90
39237;DHT22;36851;49.996;8.268;2022-09-21T03:26:25;20.10;99.90
39237;DHT22;36851;49.996;8.268;2022-09-21T03:28:52;20.10;99.90
39237;DHT22;36851;49.996;8.268;2022-09-21T03:31:22;20.10;99.90
39237;DHT22;36851;49.996;8.268;2022-09-21T03:33:49;20.10;99.90
39237;DHT22;36851;49.996;8.268;2022-09-21T03:36:16;20.10;99.90
39237;DHT22;36851;49.996;8.268;2022-09-21T03:38:44;20.10;99.90
39237;DHT22;36851;49.996;8.268;2022-09-21T03:41:11;20.10;99.90
39237;DHT22;36851;49.996;8.268;2022-09-21T03:43:40;20.10;99.90
39237;DHT22;36851;49.996;8.268;2022-09-21T03:46:07;20.10;99.90
39237;DHT22;36851;49.996;8.268;2022-09-21T03:48:34;20.10;99.90
39237;DHT22;36851;49.996;8.268;2022-09-21T03:51:01;20.00;99.90
39237;DHT22;36851;49.996;8.268;2022-09-21T03:53:28;20.10;99.90
39237;DHT22;36851;49.996;8.268;2022-09-21T03:55:56;20.10;99.90
39237;DHT22;36851;49.996;8.268;2022-09-21T03:58:23;20.20;99.90
39237;DHT22;36851;49.996;8.268;2022-09-21T04:00:50;20.40;99.90
39237;DHT22;36851;49.996;8.268;2022-09-21T04:03:18;20.70;99.90
39237;DHT22;36851;49.996;8.268;2022-09-21T04:05:45;20.90;99.90
39237;DHT22;36851;49.996;8.268;2022-09-21T04:08:13;21.10;99.90
39237;DHT22;36851;49.996;8.268;2022-09-21T04:10:40;21.40;99.90
39237;DHT22;36851;49.996;8.268;2022-09-21T04:13:08;21.60;99.90
39237;DHT22;36851;49.996;8.268;2022-09-21T04:15:35;21.70;99.90
39237;DHT22;36851;49.996;8.268;2022-09-21T04:18:03;21.90;99.90
39237;DHT22;36851;49.996;8.268;2022-09-21T04:20:31;21.90;99.90
39237;DHT22;36851;49.996;8.268;2022-09-21T04:22:58;22.00;99.90
39237;DHT22;36851;49.996;8.268;2022-09-21T04:25:26;22.00;99.90
39237;DHT22;36851;49.996;8.268;2022-09-21T04:27:53;22.00;99.90
39237;DHT22;36851;49.996;8.268;2022-09-21T04:30:21;21.90;99.90
39237;DHT22;36851;49.996;8.268;2022-09-21T04:32:48;21.90;99.90
39237;DHT22;36851;49.996;8.268;2022-09-21T04:35:15;21.90;99.90
39237;DHT22;36851;49.996;8.268;2022-09-21T04:37:42;21.90;99.90
39237;DHT22;36851;49.996;8.268;2022-09-21T04:40:10;21.90;99.90
39237;DHT22;36851;49.996;8.268;2022-09-21T04:42:37;21.90;99.90
39237;DHT22;36851;49.996;8.268;2022-09-21T04:45:04;21.80;99.90
39237;DHT22;36851;49.996;8.268;2022-09-21T04:47:32;21.80;99.90
39237;DHT22;36851;49.996;8.268;2022-09-21T04:49:59;21.80;99.90
39237;DHT22;36851;49.996;8.268;2022-09-21T04:52:26;21.80;99.90
39237;DHT22;36851;49.996;8.268;2022-09-21T04:54:53;21.80;99.90
39237;DHT22;36851;49.996;8.268;2022-09-21T04:57:20;21.70;99.90
39237;DHT22;36851;49.996;8.268;2022-09-21T04:59:48;21.70;99.90
39237;DHT22;36851;49.996;8.268;2022-09-21T05:02:15;21.70;99.90
39237;DHT22;36851;49.996;8.268;2022-09-21T05:04:42;21.70;99.90
39237;DHT22;36851;49.996;8.268;2022-09-21T05:07:16;21.70;99.90
39237;DHT22;36851;49.996;8.268;2022-09-21T05:09:43;21.70;99.90
39237;DHT22;36851;49.996;8.268;2022-09-21T05:12:29;21.80;99.90
39237;DHT22;36851;49.996;8.268;2022-09-21T05:14:56;21.80;99.90
39237;DHT22;36851;49.996;8.268;2022-09-21T05:17:24;21.80;99.90
39237;DHT22;36851;49.996;8.268;2022-09-21T05:19:51;21.80;99.90
39237;DHT22;36851;49.996;8.268;2022-09-21T05:22:21;21.80;99.90
39237;DHT22;36851;49.996;8.268;2022-09-21T05:24:48;21.80;99.90
39237;DHT22;36851;49.996;8.268;2022-09-21T05:27:15;21.80;99.90
39237;DHT22;36851;49.996;8.268;2022-09-21T05:29:42;21.90;99.90
39237;DHT22;36851;49.996;8.268;2022-09-21T05:32:18;21.80;99.90
39237;DHT22;36851;49.996;8.268;2022-09-21T05:39:50;21.70;99.90
39237;DHT22;36851;49.996;8.268;2022-09-21T05:42:17;21.70;99.90
39237;DHT22;36851;49.996;8.268;2022-09-21T05:44:45;21.70;99.90
39237;DHT22;36851;49.996;8.268;2022-09-21T05:47:23;21.70;99.90
39237;DHT22;36851;49.996;8.268;2022-09-21T05:52:39;21.60;99.90
39237;DHT22;36851;49.996;8.268;2022-09-21T05:55:19;20.90;98.70
39237;DHT22;36851;49.996;8.268;2022-09-21T05:57:58;20.00;99.90
39237;DHT22;36851;49.996;8.268;2022-09-21T06:00:27;20.10;99.90
39237;DHT22;36851;49.996;8.268;2022-09-21T06:03:19;20.50;99.90
39237;DHT22;36851;49.996;8.268;2022-09-21T06:05:49;20.70;99.90
39237;DHT22;36851;49.996;8.268;2022-09-21T06:08:16;20.90;99.90
39237;DHT22;36851;49.996;8.268;2022-09-21T06:10:44;20.90;99.90
39237;DHT22;36851;49.996;8.268;2022-09-21T06:13:11;21.00;99.90
39237;DHT22;36851;49.996;8.268;2022-09-21T06:15:38;21.00;99.90
39237;DHT22;36851;49.996;8.268;2022-09-21T06:18:06;21.00;99.90
39237;DHT22;36851;49.996;8.268;2022-09-21T06:20:33;21.00;99.90
39237;DHT22;36851;49.996;8.268;2022-09-21T06:23:04;21.00;99.90
39237;DHT22;36851;49.996;8.268;2022-09-21T06:25:32;21.00;99.90
39237;DHT22;36851;49.996;8.268;2022-09-21T06:28:10;20.90;99.90
39237;DHT22;36851;49.996;8.268;2022-09-21T06:30:38;21.00;99.90
39237;DHT22;36851;49.996;8.268;2022-09-21T06:33:06;20.90;99.90
39237;DHT22;36851;49.996;8.268;2022-09-21T06:35:34;20.90;99.90
39237;DHT22;36851;49.996;8.268;2022-09-21T06:38:02;21.00;99.90
39237;DHT22;36851;49.996;8.268;2022-09-21T06:40:30;21.00;99.90
39237;DHT22;36851;49.996;8.268;2022-09-21T06:42:58;21.00;99.90
39237;DHT22;36851;49.996;8.268;2022-09-21T06:45:26;20.90;99.90
39237;DHT22;36851;49.996;8.268;2022-09-21T06:47:53;20.90;99.90
39237;DHT22;36851;49.996;8.268;2022-09-21T06:50:20;20.90;99.90
39237;DHT22;36851;49.996;8.268;2022-09-21T06:52:47;20.90;99.90
39237;DHT22;36851;49.996;8.268;2022-09-21T06:55:14;20.90;99.90
39237;DHT22;36851;49.996;8.268;2022-09-21T06:57:42;20.90;99.90
39237;DHT22;36851;49.996;8.268;2022-09-21T07:00:10;20.90;99.90
39237;DHT22;36851;49.996;8.268;2022-09-21T07:02:41;20.90;99.90
39237;DHT22;36851;49.996;8.268;2022-09-21T07:05:08;20.90;99.90
39237;DHT22;36851;49.996;8.268;2022-09-21T07:07:35;20.90;99.90
39237;DHT22;36851;49.996;8.268;2022-09-21T07:10:02;20.90;99.90
39237;DHT22;36851;49.996;8.268;2022-09-21T07:12:32;20.90;99.90
39237;DHT22;36851;49.996;8.268;2022-09-21T07:15:01;20.90;99.90
39237;DHT22;36851;49.996;8.268;2022-09-21T07:17:35;20.90;99.90
39237;DHT22;36851;49.996;8.268;2022-09-21T07:20:05;20.90;99.90
39237;DHT22;36851;49.996;8.268;2022-09-21T07:22:34;20.90;99.90
39237;DHT22;36851;49.996;8.268;2022-09-21T07:25:02;20.90;99.90
39237;DHT22;36851;49.996;8.268;2022-09-21T07:27:29;20.90;99.90
39237;DHT22;36851;49.996;8.268;2022-09-21T07:29:57;20.90;99.90
39237;DHT22;36851;49.996;8.268;2022-09-21T07:32:24;20.90;99.90
39237;DHT22;36851;49.996;8.268;2022-09-21T07:34:54;20.90;99.90
39237;DHT22;36851;49.996;8.268;2022-09-21T07:37:23;20.80;99.90
39237;DHT22;36851;49.996;8.268;2022-09-21T07:39:50;20.90;99.90
39237;DHT22;36851;49.996;8.268;2022-09-21T07:42:19;20.80;99.90
39237;DHT22;36851;49.996;8.268;2022-09-21T07:44:47;20.80;99.90
39237;DHT22;36851;49.996;8.268;2022-09-21T07:47:14;20.90;99.90
39237;DHT22;36851;49.996;8.268;2022-09-21T07:49:41;20.90;99.90
39237;DHT22;36851;49.996;8.268;2022-09-21T07:52:08;20.90;99.90
39237;DHT22;36851;49.996;8.268;2022-09-21T07:54:37;20.90;99.90
39237;DHT22;36851;49.996;8.268;2022-09-21T07:57:04;20.90;99.90
39237;DHT22;36851;49.996;8.268;2022-09-21T07:59:50;20.90;99.90
39237;DHT22;36851;49.996;8.268;2022-09-21T08:02:17;21.00;99.90
39237;DHT22;36851;49.996;8.268;2022-09-21T08:04:44;21.00;99.90
39237;DHT22;36851;49.996;8.268;2022-09-21T08:07:11;21.00;99.90
39237;DHT22;36851;49.996;8.268;2022-09-21T08:09:39;20.90;99.90
39237;DHT22;36851;49.996;8.268;2022-09-21T08:12:06;20.90;99.90
39237;DHT22;36851;49.996;8.268;2022-09-21T08:14:34;20.90;99.90
39237;DHT22;36851;49.996;8.268;2022-09-21T08:17:03;20.90;99.90
39237;DHT22;36851;49.996;8.268;2022-09-21T08:19:30;20.90;99.90
39237;DHT22;36851;49.996;8.268;2022-09-21T08:21:57;20.90;99.90
39237;DHT22;36851;49.996;8.268;2022-09-21T08:24:24;20.90;99.90
39237;DHT22;36851;49.996;8.268;2022-09-21T08:26:53;20.70;99.90
39237;DHT22;36851;49.996;8.268;2022-09-21T08:29:22;20.70;99.90
39237;DHT22;36851;49.996;8.268;2022-09-21T08:31:49;20.80;99.90
39237;DHT22;36851;49.996;8.268;2022-09-21T08:34:16;20.60;99.90
39237;DHT22;36851;49.996;8.268;2022-09-21T08:36:43;20.10;99.90
39237;DHT22;36851;49.996;8.268;2022-09-21T08:39:10;19.70;99.90
39237;DHT22;36851;49.996;8.268;2022-09-21T08:41:50;19.60;99.90
39237;DHT22;36851;49.996;8.268;2022-09-21T08:44:25;19.80;99.90
39237;DHT22;36851;49.996;8.268;2022-09-21T08:47:04;20.10;99.90
39237;DHT22;36851;49.996;8.268;2022-09-21T08:49:32;20.30;99.90
39237;DHT22;36851;49.996;8.268;2022-09-21T08:52:02;20.50;99.90
39237;DHT22;36851;49.996;8.268;2022-09-21T08:57:02;20.70;99.90
39237;DHT22;36851;49.996;8.268;2022-09-21T08:59:32;20.80;99.90
39237;DHT22;36851;49.996;8.268;2022-09-21T09:04:29;20.80;99.90
39237;DHT22;36851;49.996;8.268;2022-09-21T09:17:47;20.80;99.90
39237;DHT22;36851;49.996;8.268;2022-09-21T09:20:19;20.90;99.90
39237;DHT22;36851;49.996;8.268;2022-09-21T09:25:19;20.90;99.90
39237;DHT22;36851;49.996;8.268;2022-09-21T09:27:49;20.90;99.90
39237;DHT22;36851;49.996;8.268;2022-09-21T09:30:19;20.90;99.90
39237;DHT22;36851;49.996;8.268;2022-09-21T09:32:55;20.90;99.90
39237;DHT22;36851;49.996;8.268;2022-09-21T09:37:50;20.90;99.90
39237;DHT22;36851;49.996;8.268;2022-09-21T09:40:23;20.90;99.90
39237;DHT22;36851;49.996;8.268;2022-09-21T09:43:04;20.90;99.90
39237;DHT22;36851;49.996;8.268;2022-09-21T09:46:09;20.90;99.90
39237;DHT22;36851;49.996;8.268;2022-09-21T09:48:42;20.90;99.90
39237;DHT22;36851;49.996;8.268;2022-09-21T09:51:19;20.90;99.90
39237;DHT22;36851;49.996;8.268;2022-09-21T09:53:46;20.90;99.90
39237;DHT22;36851;49.996;8.268;2022-09-21T09:56:14;20.80;99.90
39237;DHT22;36851;49.996;8.268;2022-09-21T09:58:46;20.90;99.90
39237;DHT22;36851;49.996;8.268;2022-09-21T10:04:11;20.80;99.90
39237;DHT22;36851;49.996;8.268;2022-09-21T10:06:39;20.70;99.90
39237;DHT22;36851;49.996;8.268;2022-09-21T10:09:22;20.60;99.90
39237;DHT22;36851;49.996;8.268;2022-09-21T10:11:50;20.70;99.90
39237;DHT22;36851;49.996;8.268;2022-09-21T10:14:19;20.70;99.90
39237;DHT22;36851;49.996;8.268;2022-09-21T10:16:47;20.70;99.90
39237;DHT22;36851;49.996;8.268;2022-09-21T10:19:16;20.70;99.90
39237;DHT22;36851;49.996;8.268;2022-09-21T10:21:44;20.70;99.90
39237;DHT22;36851;49.996;8.268;2022-09-21T10:24:22;20.80;99.90
39237;DHT22;36851;49.996;8.268;2022-09-21T10:26:51;20.40;99.90
39237;DHT22;36851;49.996;8.268;2022-09-21T10:31:58;20.20;99.90
39237;DHT22;36851;49.996;8.268;2022-09-21T10:34:27;20.00;99.90
39237;DHT22;36851;49.996;8.268;2022-09-21T10:36:56;20.10;99.90
39237;DHT22;36851;49.996;8.268;2022-09-21T10:39:25;20.20;99.90
39237;DHT22;36851;49.996;8.268;2022-09-21T10:41:54;20.20;99.90
39237;DHT22;36851;49.996;8.268;2022-09-21T10:44:25;20.20;99.70
39237;DHT22;36851;49.996;8.268;2022-09-21T10:46:52;20.20;99.30
39237;DHT22;36851;49.996;8.268;2022-09-21T10:49:26;20.30;99.10
39237;DHT22;36851;49.996;8.268;2022-09-21T10:51:55;20.30;98.90
39237;DHT22;36851;49.996;8.268;2022-09-21T10:54:25;20.30;99.90
39237;DHT22;36851;49.996;8.268;2022-09-21T10:56:54;20.50;99.70
39237;DHT22;36851;49.996;8.268;2022-09-21T10:59:26;20.50;99.90
39237;DHT22;36851;49.996;8.268;2022-09-21T11:01:54;20.60;99.90
39237;DHT22;36851;49.996;8.268;2022-09-21T11:07:03;20.60;99.90
39237;DHT22;36851;49.996;8.268;2022-09-21T11:09:36;20.70;99.90
39237;DHT22;36851;49.996;8.268;2022-09-21T11:14:50;20.70;99.90
39237;DHT22;36851;49.996;8.268;2022-09-21T11:17:24;20.70;99.90
39237;DHT22;36851;49.996;8.268;2022-09-21T11:20:38;20.60;99.90
39237;DHT22;36851;49.996;8.268;2022-09-21T11:22:59;20.70;99.90
39237;DHT22;36851;49.996;8.268;2022-09-21T11:25:49;20.70;99.90
39237;DHT22;36851;49.996;8.268;2022-09-21T11:28:25;20.70;99.90
39237;DHT22;36851;49.996;8.268;2022-09-21T11:38:51;20.70;99.90
39237;DHT22;36851;49.996;8.268;2022-09-21T11:44:00;20.80;99.90
39237;DHT22;36851;49.996;8.268;2022-09-21T11:54:54;20.80;99.90
39237;DHT22;36851;49.996;8.268;2022-09-21T12:08:38;20.70;99.90
39237;DHT22;36851;49.996;8.268;2022-09-21T12:16:11;20.60;99.90
39237;DHT22;36851;49.996;8.268;2022-09-21T12:21:30;20.60;99.90
39237;DHT22;36851;49.996;8.268;2022-09-21T12:24:03;20.60;99.90
39237;DHT22;36851;49.996;8.268;2022-09-21T12:26:39;20.60;99.90
39237;DHT22;36851;49.996;8.268;2022-09-21T12:29:14;20.60;99.90
39237;DHT22;36851;49.996;8.268;2022-09-21T12:31:55;20.60;99.90
39237;DHT22;36851;49.996;8.268;2022-09-21T12:34:26;20.60;99.90
39237;DHT22;36851;49.996;8.268;2022-09-21T12:39:51;20.60;99.90
39237;DHT22;36851;49.996;8.268;2022-09-21T12:42:24;20.60;99.90
39237;DHT22;36851;49.996;8.268;2022-09-21T12:44:54;20.60;99.90
39237;DHT22;36851;49.996;8.268;2022-09-21T12:50:10;20.60;99.90
39237;DHT22;36851;49.996;8.268;2022-09-21T12:52:39;20.60;99.90
39237;DHT22;36851;49.996;8.268;2022-09-21T12:58:43;20.70;99.90
39237;DHT22;36851;49.996;8.268;2022-09-21T13:03:26;20.80;99.90
39237;DHT22;36851;49.996;8.268;2022-09-21T13:08:23;20.90;99.90
39237;DHT22;36851;49.996;8.268;2022-09-21T13:10:59;21.00;99.90
39237;DHT22;36851;49.996;8.268;2022-09-21T13:13:31;21.20;99.90
39237;DHT22;36851;49.996;8.268;2022-09-21T13:15:59;21.30;99.90
39237;DHT22;36851;49.996;8.268;2022-09-21T13:18:28;21.30;99.90
39237;DHT22;36851;49.996;8.268;2022-09-21T13:21:18;21.40;99.90
39237;DHT22;36851;49.996;8.268;2022-09-21T13:23:56;21.40;99.90
39237;DHT22;36851;49.996;8.268;2022-09-21T13:26:31;21.40;99.90
39237;DHT22;36851;49.996;8.268;2022-09-21T13:29:01;21.40;99.90
39237;DHT22;36851;49.996;8.268;2022-09-21T13:31:38;21.30;99.90
39237;DHT22;36851;49.996;8.268;2022-09-21T13:39:32;21.50;99.90
39237;DHT22;36851;49.996;8.268;2022-09-21T13:44:50;21.60;99.90
39237;DHT22;36851;49.996;8.268;2022-09-21T13:47:17;21.70;99.90
39237;DHT22;36851;49.996;8.268;2022-09-21T13:49:53;21.70;99.90
39237;DHT22;36851;49.996;8.268;2022-09-21T13:52:28;21.80;99.90
39237;DHT22;36851;49.996;8.268;2022-09-21T13:54:58;21.80;99.90
39237;DHT22;36851;49.996;8.268;2022-09-21T13:57:30;21.90;99.90
39237;DHT22;36851;49.996;8.268;2022-09-21T14:05:08;21.90;99.90
39237;DHT22;36851;49.996;8.268;2022-09-21T14:07:45;22.00;99.90
39237;DHT22;36851;49.996;8.268;2022-09-21T14:10:16;22.00;99.90
39237;DHT22;36851;49.996;8.268;2022-09-21T14:12:44;22.00;99.90
39237;DHT22;36851;49.996;8.268;2022-09-21T14:17:42;22.00;99.90
39237;DHT22;36851;49.996;8.268;2022-09-21T14:20:29;22.00;99.90
39237;DHT22;36851;49.996;8.268;2022-09-21T14:23:10;21.90;99.90
39237;DHT22;36851;49.996;8.268;2022-09-21T14:25:48;21.90;99.90
39237;DHT22;36851;49.996;8.268;2022-09-21T14:28:17;21.80;99.90
39237;DHT22;36851;49.996;8.268;2022-09-21T14:30:50;21.80;99.90
39237;DHT22;36851;49.996;8.268;2022-09-21T14:33:21;21.70;99.90
39237;DHT22;36851;49.996;8.268;2022-09-21T14:35:51;21.70;99.90
39237;DHT22;36851;49.996;8.268;2022-09-21T14:38:26;21.70;99.90
39237;DHT22;36851;49.996;8.268;2022-09-21T14:40:56;21.60;99.90
39237;DHT22;36851;49.996;8.268;2022-09-21T14:43:31;21.50;99.90
39237;DHT22;36851;49.996;8.268;2022-09-21T14:52:05;21.40;99.90
39237;DHT22;36851;49.996;8.268;2022-09-21T14:54:17;21.40;99.90
39237;DHT22;36851;49.996;8.268;2022-09-21T15:02:00;21.50;99.90
39237;DHT22;36851;49.996;8.268;2022-09-21T15:10:23;21.40;99.90
39237;DHT22;36851;49.996;8.268;2022-09-21T15:15:41;21.40;99.90
39237;DHT22;36851;49.996;8.268;2022-09-21T15:18:17;21.40;99.90
39237;DHT22;36851;49.996;8.268;2022-09-21T15:20:59;21.40;99.90
39237;DHT22;36851;49.996;8.268;2022-09-21T15:23:30;21.30;99.90
39237;DHT22;36851;49.996;8.268;2022-09-21T15:26:01;21.30;99.90
39237;DHT22;36851;49.996;8.268;2022-09-21T15:28:33;21.30;99.90
39237;DHT22;36851;49.996;8.268;2022-09-21T15:31:21;21.40;99.90
39237;DHT22;36851;49.996;8.268;2022-09-21T15:33:49;21.40;99.90
39237;DHT22;36851;49.996;8.268;2022-09-21T15:36:26;21.40;99.90
39237;DHT22;36851;49.996;8.268;2022-09-21T15:38:54;21.40;99.90
39237;DHT22;36851;49.996;8.268;2022-09-21T15:41:44;21.40;99.90
39237;DHT22;36851;49.996;8.268;2022-09-21T15:46:40;21.40;99.90
39237;DHT22;36851;49.996;8.268;2022-09-21T15:49:13;21.40;99.90
39237;DHT22;36851;49.996;8.268;2022-09-21T15:51:41;21.30;99.90
39237;DHT22;36851;49.996;8.268;2022-09-21T15:56:59;21.30;99.90
39237;DHT22;36851;49.996;8.268;2022-09-21T15:59:33;21.20;99.90
39237;DHT22;36851;49.996;8.268;2022-09-21T16:02:08;21.30;99.90
39237;DHT22;36851;49.996;8.268;2022-09-21T16:04:38;21.30;99.90
39237;DHT22;36851;49.996;8.268;2022-09-21T16:07:24;21.30;99.90
39237;DHT22;36851;49.996;8.268;2022-09-21T16:09:51;21.30;99.90
39237;DHT22;36851;49.996;8.268;2022-09-21T16:14:52;21.20;99.90
39237;DHT22;36851;49.996;8.268;2022-09-21T16:17:34;21.30;99.90
39237;DHT22;36851;49.996;8.268;2022-09-21T16:22:51;21.30;99.90
39237;DHT22;36851;49.996;8.268;2022-09-21T16:27:51;21.40;99.90
39237;DHT22;36851;49.996;8.268;2022-09-21T16:30:39;21.30;99.90
39237;DHT22;36851;49.996;8.268;2022-09-21T16:35:52;21.20;99.90
39237;DHT22;36851;49.996;8.268;2022-09-21T16:38:21;21.20;99.90
39237;DHT22;36851;49.996;8.268;2022-09-21T16:40:49;21.20;99.90
39237;DHT22;36851;49.996;8.268;2022-09-21T16:43:19;21.20;99.90
39237;DHT22;36851;49.996;8.268;2022-09-21T16:45:49;21.20;99.90
39237;DHT22;36851;49.996;8.268;2022-09-21T16:48:16;21.20;99.90
39237;DHT22;36851;49.996;8.268;2022-09-21T16:50:44;21.20;99.90
39237;DHT22;36851;49.996;8.268;2022-09-21T16:53:12;21.20;99.90
39237;DHT22;36851;49.996;8.268;2022-09-21T16:55:40;21.20;99.90
39237;DHT22;36851;49.996;8.268;2022-09-21T16:58:08;21.20;99.90
39237;DHT22;36851;49.996;8.268;2022-09-21T17:00:37;21.20;99.90
39237;DHT22;36851;49.996;8.268;2022-09-21T17:03:05;21.20;99.90
39237;DHT22;36851;49.996;8.268;2022-09-21T17:05:32;21.20;99.90
39237;DHT22;36851;49.996;8.268;2022-09-21T17:07:59;21.20;99.90
39237;DHT22;36851;49.996;8.268;2022-09-21T17:10:28;21.20;99.90
39237;DHT22;36851;49.996;8.268;2022-09-21T17:12:56;21.10;99.90
39237;DHT22;36851;49.996;8.268;2022-09-21T17:15:23;21.10;99.90
39237;DHT22;36851;49.996;8.268;2022-09-21T17:17:51;21.10;99.90
39237;DHT22;36851;49.996;8.268;2022-09-21T17:22:54;21.10;99.90
39237;DHT22;36851;49.996;8.268;2022-09-21T17:25:22;21.10;99.90
39237;DHT22;36851;49.996;8.268;2022-09-21T17:27:49;21.10;99.90
39237;DHT22;36851;49.996;8.268;2022-09-21T17:30:18;21.10;99.90
39237;DHT22;36851;49.996;8.268;2022-09-21T17:32:47;21.10;99.90
39237;DHT22;36851;49.996;8.268;2022-09-21T17:35:16;21.10;99.90
39237;DHT22;36851;49.996;8.268;2022-09-21T17:37:44;21.10;99.90
39237;DHT22;36851;49.996;8.268;2022-09-21T17:40:12;21.10;99.90
39237;DHT22;36851;49.996;8.268;2022-09-21T17:42:40;21.00;99.90
39237;DHT22;36851;49.996;8.268;2022-09-21T17:47:39;21.00;99.90
39237;DHT22;36851;49.996;8.268;2022-09-21T17:52:36;21.10;99.90
39237;DHT22;36851;49.996;8.268;2022-09-21T17:55:23;21.10;99.90
39237;DHT22;36851;49.996;8.268;2022-09-21T18:00:39;21.10;99.90
39237;DHT22;36851;49.996;8.268;2022-09-21T18:03:15;21.10;99.90
39237;DHT22;36851;49.996;8.268;2022-09-21T18:05:43;21.10;99.90
39237;DHT22;36851;49.996;8.268;2022-09-21T18:08:10;21.10;99.90
39237;DHT22;36851;49.996;8.268;2022-09-21T18:10:39;21.10;99.90
39237;DHT22;36851;49.996;8.268;2022-09-21T18:15:45;21.20;99.90
39237;DHT22;36851;49.996;8.268;2022-09-21T18:18:18;21.20;99.90
39237;DHT22;36851;49.996;8.268;2022-09-21T18:20:55;21.20;99.90
39237;DHT22;36851;49.996;8.268;2022-09-21T18:23:42;21.30;99.90
39237;DHT22;36851;49.996;8.268;2022-09-21T18:26:12;21.30;99.90
39237;DHT22;36851;49.996;8.268;2022-09-21T18:28:42;21.30;99.90
39237;DHT22;36851;49.996;8.268;2022-09-21T18:36:39;21.40;99.90
39237;DHT22;36851;49.996;8.268;2022-09-21T18:44:33;21.30;99.90
39237;DHT22;36851;49.996;8.268;2022-09-21T18:47:11;21.40;99.90
39237;DHT22;36851;49.996;8.268;2022-09-21T18:49:45;21.40;99.90
39237;DHT22;36851;49.996;8.268;2022-09-21T18:55:21;21.40;99.90
39237;DHT22;36851;49.996;8.268;2022-09-21T18:57:51;21.40;99.90